Donnie Sonier — WDF9285 — position and weather

sailwx.info

Track history (hours):
 
Tides and Currents Weather Stations Pressure Air Temp Water Temp Dewpoint Dewpoint Depression Visibility Wind Speed Wind Dir Waves Ship Positions

Donnie Sonier

Owner: LeBeouf Bros. Towing, LLC, Houma, LA. More information available from US FCC via Universal Licensing System and Coast Guard Vessel Documentation Center.

Last reported at 2016-May-04 13:33 UTC. Time now 2016-May-04 19:17 UTC.
Position N 29°60' W 093°55'.

Length 22 m.

Type: Tug. MMSI: 367503580.

Date/timePositionNaut miles runAvg speedWind from/ knotsBaromVisibWave heightAir tempDewpointWater temp
2016-May-04 13:33N 29°60' W 093°55'0 0.0
2016-May-04 12:33N 29°60' W 093°55'0 0.0
2016-May-04 11:33N 29°60' W 093°55'0 0.0
2016-May-04 10:33N 29°60' W 093°55'0 0.0
2016-May-04 09:33N 29°60' W 093°55'0 0.0
2016-May-04 08:33N 29°60' W 093°55'0 0.2
2016-May-04 07:33N 29°60' W 093°55'0 0.0
2016-May-04 06:33N 29°60' W 093°55'0 0.0
2016-May-04 05:33N 29°60' W 093°55'0 0.0
2016-May-04 04:33N 29°60' W 093°55'0 0.0
2016-May-04 03:20N 29°60' W 093°55'0 0.0
2016-May-04 02:31N 29°60' W 093°55'0 0.0
2016-May-03 15:33N 29°60' W 093°55'0 0.0
2016-May-03 14:27N 29°60' W 093°55'  
2016-Apr-30 01:34N 29°34' W 094°55'7 6.8
2016-Apr-30 00:34N 29°40' W 094°59'4 4.3
2016-Apr-29 23:33N 29°44' W 095°01'0 0.0
2016-Apr-29 02:23N 29°44' W 095°01'6 6.5
2016-Apr-29 01:30N 29°39' W 094°58'7 7.8
2016-Apr-29 00:33N 29°32' W 094°54'  
Track history (hours):
 
Tides and Currents Weather Stations Pressure Air Temp Water Temp Dewpoint Dewpoint Depression Visibility Wind Speed Wind Dir Waves Ship Positions

Donnie Sonier

Owner: LeBeouf Bros. Towing, LLC, Houma, LA. More information available from US FCC via Universal Licensing System and Coast Guard Vessel Documentation Center.

Last reported at 2016-May-04 13:33 UTC. Time now 2016-May-04 19:17 UTC.
Position N 29°60' W 093°55'.

Length 22 m.

Type: Tug. MMSI: 367503580.

Date/timePositionNaut miles runAvg speedWind from/ knotsBaromVisibWave heightAir tempDewpointWater temp
2016-May-04 13:33N 29°60' W 093°55'0 0.0
2016-May-04 12:33N 29°60' W 093°55'0 0.0
2016-May-04 11:33N 29°60' W 093°55'0 0.0
2016-May-04 10:33N 29°60' W 093°55'0 0.0
2016-May-04 09:33N 29°60' W 093°55'0 0.0
2016-May-04 08:33N 29°60' W 093°55'0 0.2
2016-May-04 07:33N 29°60' W 093°55'0 0.0
2016-May-04 06:33N 29°60' W 093°55'0 0.0
2016-May-04 05:33N 29°60' W 093°55'0 0.0
2016-May-04 04:33N 29°60' W 093°55'0 0.0
2016-May-04 03:20N 29°60' W 093°55'0 0.0
2016-May-04 02:31N 29°60' W 093°55'0 0.0
2016-May-03 15:33N 29°60' W 093°55'0 0.0
2016-May-03 14:27N 29°60' W 093°55'  
2016-Apr-30 01:34N 29°34' W 094°55'7 6.8
2016-Apr-30 00:34N 29°40' W 094°59'4 4.3
2016-Apr-29 23:33N 29°44' W 095°01'0 0.0
2016-Apr-29 02:23N 29°44' W 095°01'6 6.5
2016-Apr-29 01:30N 29°39' W 094°58'7 7.8
2016-Apr-29 00:33N 29°32' W 094°54'  

Dump ship's entire track history